Time;durP1;ratioP1;P1;durP2;ratioP2;P2;SDS_P1;SDS_P2;PMS_P1;PMS_P2;Temp;Humidity;BMP_temperature;BMP_pressure;BME280_temperature;BME280_humidity;BME280_pressure;Samples;Min_cycle;Max_cycle;Signal;HPM_P1;HPM_P2
2023/06/17 00:02:01;;;;;;;5.93;2.88;;;;;;;17.35;62.21;100564.38;6180829;22;20005;-91
2023/06/17 00:04:27;;;;;;;3.17;2.42;;;;;;;17.44;61.54;100563.63;6180777;22;20022;-89
2023/06/17 00:06:53;;;;;;;5.25;2.53;;;;;;;17.54;61.34;100555.84;6180786;22;20009;-90
2023/06/17 00:09:18;;;;;;;3.42;2.58;;;;;;;17.60;61.69;100552.69;6180440;22;20013;-91
2023/06/17 00:11:44;;;;;;;10.00;2.85;;;;;;;17.53;61.96;100536.75;6284781;22;20383;-88
2023/06/17 00:14:09;;;;;;;3.35;2.97;;;;;;;17.40;62.83;100541.34;6180557;22;20013;-89
2023/06/17 00:16:36;;;;;;;3.75;2.53;;;;;;;17.27;63.92;100540.75;6180602;23;20420;-93
2023/06/17 00:19:04;;;;;;;3.15;2.58;;;;;;;17.16;63.72;100549.44;6180341;22;20009;-89
2023/06/17 00:21:29;;;;;;;7.05;3.17;;;;;;;17.22;64.00;100554.16;6180357;22;20487;-90
2023/06/17 00:23:55;;;;;;;6.30;2.63;;;;;;;17.33;62.45;100553.25;6180583;22;20005;-91
2023/06/17 00:26:20;;;;;;;3.22;2.50;;;;;;;17.10;63.17;100552.56;6180522;23;20001;-90
2023/06/17 00:28:45;;;;;;;6.63;2.88;;;;;;;17.16;63.81;100538.19;6180274;22;20005;-91
2023/06/17 00:31:11;;;;;;;3.53;2.78;;;;;;;17.22;63.33;100532.47;6180263;23;20016;-90
2023/06/17 00:33:36;;;;;;;3.97;2.88;;;;;;;17.29;63.52;100518.78;6284899;22;20438;-90
2023/06/17 00:36:02;;;;;;;8.63;3.42;;;;;;;17.32;62.37;100522.91;6180812;23;20092;-92
2023/06/17 00:38:28;;;;;;;5.60;2.90;;;;;;;17.34;62.89;100523.63;6180979;22;20006;-91
2023/06/17 00:40:53;;;;;;;8.18;2.72;;;;;;;17.56;62.40;100514.78;6179978;23;20009;-91
2023/06/17 00:43:18;;;;;;;4.13;2.80;;;;;;;17.73;62.27;100513.34;6180607;22;20488;-92
2023/06/17 00:45:43;;;;;;;2.90;2.53;;;;;;;17.67;62.61;100517.28;6181292;22;20009;-92
2023/06/17 00:48:11;;;;;;;5.55;2.45;;;;;;;17.66;62.24;100515.63;6180683;22;20001;-91
2023/06/17 00:50:37;;;;;;;6.82;2.83;;;;;;;17.65;60.91;100510.53;6180275;22;20480;-91
2023/06/17 00:53:03;;;;;;;6.22;2.03;;;;;;;17.59;60.27;100511.09;6284212;22;20036;-91
2023/06/17 00:55:30;;;;;;;7.53;2.95;;;;;;;17.56;60.50;100499.13;6180506;22;19998;-92
2023/06/17 00:57:57;;;;;;;4.55;2.60;;;;;;;17.54;61.05;100504.47;6180524;22;20009;-91
2023/06/17 01:00:23;;;;;;;3.80;2.33;;;;;;;17.46;61.85;100503.47;6180507;22;20016;-91
2023/06/17 01:02:48;;;;;;;3.67;2.55;;;;;;;17.41;61.66;100493.44;6180422;22;20001;-90
2023/06/17 01:05:16;;;;;;;3.20;2.15;;;;;;;17.30;62.45;100504.78;6284235;22;20005;-91
2023/06/17 01:07:46;;;;;;;5.28;2.70;;;;;;;17.22;63.99;100498.56;6284083;22;19989;-89
2023/06/17 01:10:30;;;;;;;5.07;2.58;;;;;;;17.32;66.35;100496.81;6284095;22;20428;-90
2023/06/17 01:12:57;;;;;;;5.85;2.55;;;;;;;17.33;67.54;100490.63;6180602;23;20005;-92
2023/06/17 01:15:23;;;;;;;3.05;2.60;;;;;;;17.44;68.27;100490.56;6284630;22;20013;-91
2023/06/17 01:17:52;;;;;;;5.80;2.67;;;;;;;17.54;70.13;100491.41;6180444;22;20089;-91
2023/06/17 01:20:18;;;;;;;3.33;2.50;;;;;;;17.58;68.63;100489.38;6179898;22;20084;-90
2023/06/17 01:22:45;;;;;;;2.55;2.17;;;;;;;17.55;66.98;100493.06;6180341;22;20349;-90
2023/06/17 01:25:13;;;;;;;2.88;2.35;;;;;;;17.46;67.86;100493.03;6284198;22;20054;-90
2023/06/17 01:27:39;;;;;;;5.65;2.20;;;;;;;17.53;67.29;100488.94;6284230;22;20432;-90
2023/06/17 01:30:05;;;;;;;3.65;2.05;;;;;;;17.58;67.55;100485.94;6283864;22;20016;-91
2023/06/17 01:32:30;;;;;;;3.63;1.95;;;;;;;17.59;67.11;100487.59;6284300;22;20001;-92
2023/06/17 01:35:11;;;;;;;5.80;2.13;;;;;;;17.51;65.16;100485.66;6284150;22;20054;-91
2023/06/17 01:38:05;;;;;;;4.35;1.90;;;;;;;17.36;63.68;100482.53;6180480;22;20005;-91
2023/06/17 01:40:32;;;;;;;2.83;2.05;;;;;;;17.37;64.63;100481.59;6180288;22;20444;-90
2023/06/17 01:43:01;;;;;;;2.97;2.08;;;;;;;17.42;64.71;100476.81;6284198;22;20002;-90
2023/06/17 01:45:27;;;;;;;4.10;1.80;;;;;;;17.37;64.34;100481.59;6180410;22;20005;-92
2023/06/17 01:47:53;;;;;;;3.47;2.10;;;;;;;17.51;62.80;100486.47;6284446;22;20350;-89
2023/06/17 01:50:19;;;;;;;5.10;1.80;;;;;;;17.31;63.58;100484.72;6180307;22;20028;-91
2023/06/17 01:52:45;;;;;;;2.95;1.90;;;;;;;17.39;62.48;100482.31;6180213;22;20020;-90
2023/06/17 01:55:12;;;;;;;3.75;2.00;;;;;;;17.33;61.09;100482.81;6180487;22;20423;-89
2023/06/17 01:57:37;;;;;;;3.33;2.33;;;;;;;17.30;60.26;100483.09;6284029;22;20462;-90
2023/06/17 02:00:04;;;;;;;5.68;2.28;;;;;;;17.19;63.02;100480.53;6180444;22;20031;-90
2023/06/17 02:02:29;;;;;;;6.28;2.20;;;;;;;17.00;64.87;100474.28;6180162;22;20079;-91
2023/06/17 02:04:55;;;;;;;2.95;1.92;;;;;;;17.02;66.10;100479.34;6283492;22;20463;-91
2023/06/17 02:07:25;;;;;;;2.95;2.08;;;;;;;17.08;69.22;100481.47;6180212;22;20003;-92
2023/06/17 02:09:51;;;;;;;3.65;2.10;;;;;;;17.00;68.42;100470.88;6283844;22;20013;-91
2023/06/17 02:12:16;;;;;;;4.47;2.58;;;;;;;16.89;67.25;100463.91;6180462;22;20009;-91
2023/06/17 02:14:41;;;;;;;5.65;2.42;;;;;;;16.92;69.29;100455.84;6283561;22;20009;-91
2023/06/17 02:17:08;;;;;;;2.97;2.50;;;;;;;16.76;73.68;100456.28;6179970;23;20076;-91
2023/06/17 02:19:35;;;;;;;5.10;2.35;;;;;;;16.85;75.20;100455.53;6180052;22;20005;-91
2023/06/17 02:22:02;;;;;;;6.10;2.53;;;;;;;16.73;76.90;100453.06;6283703;22;20005;-90
2023/06/17 02:24:27;;;;;;;5.47;3.22;;;;;;;16.64;76.43;100454.69;6283958;22;20091;-90
2023/06/17 02:26:53;;;;;;;4.65;2.45;;;;;;;16.85;74.48;100449.47;6179998;23;20372;-91
2023/06/17 02:29:18;;;;;;;5.95;2.42;;;;;;;16.80;74.08;100441.22;6180328;22;20005;-92
2023/06/17 02:31:44;;;;;;;3.22;2.22;;;;;;;16.75;73.44;100446.78;6179953;23;20005;-91
2023/06/17 02:34:09;;;;;;;2.90;2.15;;;;;;;16.77;71.83;100446.66;6180283;22;20420;-92
2023/06/17 02:36:39;;;;;;;7.53;3.20;;;;;;;16.65;71.76;100438.94;6180229;23;20412;-90
2023/06/17 02:39:05;;;;;;;5.50;3.60;;;;;;;16.71;74.51;100442.81;6180101;22;20000;-92
2023/06/17 02:41:31;;;;;;;6.65;3.10;;;;;;;16.69;72.63;100421.25;6180069;22;20443;-91
2023/06/17 02:43:57;;;;;;;3.72;3.08;;;;;;;16.42;80.46;100419.16;6283450;22;20001;-91
2023/06/17 02:46:24;;;;;;;5.38;3.25;;;;;;;16.27;86.91;100416.84;6179841;22;20004;-92
2023/06/17 02:48:49;;;;;;;6.38;3.17;;;;;;;16.29;87.66;100421.94;6179705;23;20436;-91
2023/06/17 02:51:15;;;;;;;7.40;2.85;;;;;;;16.27;85.44;100416.84;6179647;22;20008;-91
2023/06/17 02:53:41;;;;;;;4.13;3.15;;;;;;;16.25;87.36;100416.16;6283413;22;20051;-90
2023/06/17 02:56:06;;;;;;;9.50;3.33;;;;;;;16.21;85.96;100411.31;6283472;22;20001;-90
2023/06/17 02:58:31;;;;;;;5.65;3.10;;;;;;;16.14;92.00;100410.16;6179745;23;20009;-92
2023/06/17 03:00:57;;;;;;;6.60;3.53;;;;;;;16.16;94.54;100411.69;6282978;22;20087;-92
2023/06/17 03:03:33;;;;;;;11.27;4.38;;;;;;;16.16;93.96;100406.47;6179705;23;20046;-91
2023/06/17 03:06:05;;;;;;;6.78;3.55;;;;;;;16.30;93.45;100399.31;6283453;22;20001;-91
2023/06/17 03:08:33;;;;;;;5.90;3.17;;;;;;;16.20;95.71;100407.88;6180138;22;20001;-91
2023/06/17 03:11:02;;;;;;;10.88;3.22;;;;;;;16.22;96.24;100407.78;6283244;22;20001;-92
2023/06/17 03:13:28;;;;;;;5.20;3.47;;;;;;;16.31;92.56;100411.38;6180201;22;20005;-91
2023/06/17 03:15:55;;;;;;;7.18;3.88;;;;;;;16.07;87.89;100409.84;6179798;22;20001;-92
2023/06/17 03:18:23;;;;;;;5.07;3.38;;;;;;;15.93;89.76;100397.13;6179830;22;20084;-91
2023/06/17 03:20:50;;;;;;;6.18;3.60;;;;;;;15.84;90.15;100409.91;6179670;23;20212;-91
2023/06/17 03:23:20;;;;;;;4.07;3.15;;;;;;;15.70;91.50;100410.16;6283385;22;20435;-91
2023/06/17 03:25:47;;;;;;;9.85;4.93;;;;;;;15.89;91.37;100411.31;6179548;23;20036;-90
2023/06/17 03:28:13;;;;;;;5.75;3.40;;;;;;;15.94;91.08;100406.56;6179291;22;20054;-91
2023/06/17 03:30:41;;;;;;;6.00;3.53;;;;;;;15.45;91.42;100405.22;6283408;22;20017;-91
2023/06/17 03:33:08;;;;;;;4.30;3.42;;;;;;;15.41;92.85;100408.06;6283596;22;20049;-91
2023/06/17 03:35:33;;;;;;;4.78;3.50;;;;;;;15.56;93.93;100397.41;6283493;22;20005;-92
2023/06/17 03:37:59;;;;;;;5.22;3.75;;;;;;;15.61;90.58;100395.28;6179530;22;20001;-89
2023/06/17 03:40:24;;;;;;;5.85;3.58;;;;;;;15.52;93.31;100411.59;6283230;22;20006;-91
2023/06/17 03:42:50;;;;;;;3.78;3.38;;;;;;;15.53;90.60;100410.66;6179663;23;20001;-91
2023/06/17 03:45:16;;;;;;;4.60;3.53;;;;;;;15.34;93.47;100414.69;6179502;22;20001;-91
2023/06/17 03:47:41;;;;;;;5.65;3.42;;;;;;;15.35;91.70;100421.53;6283218;22;20028;-91
2023/06/17 03:50:07;;;;;;;5.20;3.67;;;;;;;15.31;93.18;100424.50;6283137;22;20478;-90
2023/06/17 03:52:33;;;;;;;4.00;3.55;;;;;;;15.38;93.74;100434.31;6179391;22;20078;-91
2023/06/17 03:54:59;;;;;;;4.72;3.85;;;;;;;15.28;93.51;100429.94;6179699;22;20001;-91
2023/06/17 03:57:25;;;;;;;4.03;3.33;;;;;;;15.20;95.90;100427.94;6179512;22;20009;-91
2023/06/17 03:59:51;;;;;;;4.70;3.50;;;;;;;15.29;94.72;100424.63;6283347;22;20088;-91
2023/06/17 04:02:16;;;;;;;6.43;3.90;;;;;;;15.22;95.86;100420.03;6179541;23;20036;-91
2023/06/17 04:04:42;;;;;;;5.18;3.38;;;;;;;15.20;96.58;100420.13;6285466;22;20001;-91
2023/06/17 04:07:08;;;;;;;6.97;4.18;;;;;;;15.05;96.30;100422.16;6285021;22;20009;-90
2023/06/17 04:09:33;;;;;;;8.57;4.15;;;;;;;15.10;97.85;100419.19;6180769;23;20088;-91
2023/06/17 04:11:59;;;;;;;5.13;4.53;;;;;;;15.25;95.30;100418.00;6180859;22;20012;-92
2023/06/17 04:14:24;;;;;;;7.43;3.67;;;;;;;15.11;98.25;100421.66;6284557;22;20013;-92
2023/06/17 04:16:49;;;;;;;4.28;3.42;;;;;;;15.17;100.00;100421.22;6180722;23;20005;-91
2023/06/17 04:19:17;;;;;;;4.72;3.80;;;;;;;15.14;100.00;100415.41;6180293;23;20013;-91
2023/06/17 04:21:45;;;;;;;6.57;4.07;;;;;;;14.95;100.00;100422.03;6180652;22;20009;-91
2023/06/17 04:24:11;;;;;;;4.88;4.30;;;;;;;14.93;95.77;100417.88;6181053;23;20001;-91
2023/06/17 04:26:36;;;;;;;5.55;4.15;;;;;;;14.82;92.30;100416.09;6180801;23;20507;-90
2023/06/17 04:29:03;;;;;;;5.88;3.92;;;;;;;14.86;88.54;100407.13;6180531;23;20005;-92
2023/06/17 04:31:28;;;;;;;5.57;4.30;;;;;;;14.87;90.47;100402.75;6285107;22;20438;-91
2023/06/17 04:33:54;;;;;;;6.57;4.07;;;;;;;14.82;89.26;100394.47;6180428;22;19997;-91
2023/06/17 04:36:21;;;;;;;6.60;4.35;;;;;;;14.81;95.07;100398.03;6284633;22;20516;-92
2023/06/17 04:38:49;;;;;;;7.03;3.88;;;;;;;14.83;100.00;100402.16;6180484;23;19998;-91
2023/06/17 04:41:16;;;;;;;5.53;4.60;;;;;;;14.93;100.00;100410.91;6284646;22;20008;-92
2023/06/17 04:43:48;;;;;;;5.47;4.20;;;;;;;14.98;100.00;100413.97;6284673;22;20002;-91
2023/06/17 04:46:16;;;;;;;5.90;4.35;;;;;;;14.92;100.00;100411.88;6284629;22;20081;-92
2023/06/17 04:48:43;;;;;;;5.18;4.45;;;;;;;14.99;100.00;100410.44;6284791;22;20405;-91
2023/06/17 04:51:09;;;;;;;7.82;4.10;;;;;;;14.90;100.00;100408.56;6181015;22;20501;-92
2023/06/17 04:53:35;;;;;;;6.90;4.57;;;;;;;15.03;100.00;100413.63;6284708;22;20499;-90
2023/06/17 04:56:04;;;;;;;5.53;4.55;;;;;;;15.15;100.00;100411.88;6180542;22;20008;-91
2023/06/17 04:58:29;;;;;;;5.82;4.55;;;;;;;15.35;99.27;100408.53;6180821;22;20424;-93
2023/06/17 05:00:55;;;;;;;12.18;4.35;;;;;;;15.40;100.00;100401.19;6180623;23;20021;-92
2023/06/17 05:03:20;;;;;;;6.03;4.72;;;;;;;15.24;100.00;100394.72;6180837;23;20009;-92
2023/06/17 05:05:45;;;;;;;5.68;4.40;;;;;;;15.17;100.00;100399.59;6284286;22;20009;-92
2023/06/17 05:08:11;;;;;;;6.38;4.65;;;;;;;15.00;99.57;100398.28;6180870;23;20438;-92
2023/06/17 05:10:36;;;;;;;7.85;4.82;;;;;;;15.05;100.00;100397.94;6180663;22;20084;-92
2023/06/17 05:13:01;;;;;;;4.57;4.10;;;;;;;14.99;100.00;100407.00;6180669;23;20001;-91
2023/06/17 05:15:27;;;;;;;6.32;4.53;;;;;;;15.04;100.00;100417.88;6180464;22;20001;-92
2023/06/17 05:17:52;;;;;;;8.32;5.32;;;;;;;15.02;100.00;100421.53;6180473;22;20012;-92
2023/06/17 05:20:17;;;;;;;11.90;4.97;;;;;;;14.98;100.00;100432.19;6284540;22;20016;-92
2023/06/17 05:22:43;;;;;;;6.68;4.80;;;;;;;14.85;100.00;100428.88;6180664;22;20502;-91
2023/06/17 05:25:08;;;;;;;8.57;4.95;;;;;;;14.91;100.00;100420.59;6284575;22;20344;-92
2023/06/17 05:27:33;;;;;;;7.00;4.75;;;;;;;14.79;95.16;100426.72;6181049;23;20001;-92
2023/06/17 05:29:59;;;;;;;8.85;4.95;;;;;;;14.75;99.08;100425.28;6180659;22;20458;-91
2023/06/17 05:32:25;;;;;;;6.15;4.55;;;;;;;14.83;96.90;100417.75;6180409;23;20323;-91
2023/06/17 05:34:50;;;;;;;6.60;4.72;;;;;;;14.92;95.39;100424.84;6180647;23;20001;-90
2023/06/17 05:37:16;;;;;;;6.65;5.18;;;;;;;14.94;98.69;100419.53;6284307;22;20447;-91
2023/06/17 05:39:41;;;;;;;11.68;5.10;;;;;;;15.08;100.00;100421.09;6180301;22;20009;-91
2023/06/17 05:42:07;;;;;;;12.05;6.82;;;;;;;15.08;99.97;100413.28;6284210;22;20047;-90
2023/06/17 05:44:32;;;;;;;6.53;4.63;;;;;;;15.26;100.00;100414.44;6179875;23;20013;-91
2023/06/17 05:46:57;;;;;;;8.80;5.05;;;;;;;15.26;100.00;100408.44;6180506;23;20075;-90
2023/06/17 05:49:23;;;;;;;6.57;4.97;;;;;;;15.26;100.00;100411.84;6179895;23;20080;-92
2023/06/17 05:51:48;;;;;;;8.07;5.65;;;;;;;15.21;100.00;100400.97;6180040;23;20031;-91
2023/06/17 05:54:13;;;;;;;8.43;5.63;;;;;;;15.36;100.00;100405.00;6283852;22;20093;-91
2023/06/17 05:56:39;;;;;;;7.50;5.07;;;;;;;15.45;100.00;100415.63;6179987;23;20037;-91
2023/06/17 05:59:05;;;;;;;8.27;5.30;;;;;;;15.36;100.00;100420.63;6180011;23;20027;-91
2023/06/17 06:01:31;;;;;;;7.68;6.20;;;;;;;15.39;100.00;100420.38;6180077;22;20428;-91
2023/06/17 06:03:56;;;;;;;10.40;6.43;;;;;;;15.46;100.00;100414.66;6179841;22;21151;-91
2023/06/17 06:06:21;;;;;;;10.10;5.90;;;;;;;15.54;100.00;100412.31;6180271;22;20085;-90
2023/06/17 06:08:47;;;;;;;10.02;5.43;;;;;;;15.52;100.00;100416.81;6179867;23;20541;-90
2023/06/17 06:11:12;;;;;;;9.57;6.22;;;;;;;15.24;100.00;100405.97;6180153;22;20432;-91
2023/06/17 06:13:37;;;;;;;15.38;5.95;;;;;;;15.25;100.00;100415.41;6283670;22;20492;-91
2023/06/17 06:16:03;;;;;;;8.02;5.93;;;;;;;15.27;100.00;100421.31;6283616;22;20431;-91
2023/06/17 06:18:29;;;;;;;10.40;6.25;;;;;;;15.29;100.00;100423.78;6283637;22;20006;-92
2023/06/17 06:20:55;;;;;;;10.32;6.38;;;;;;;15.31;100.00;100435.72;6179867;23;20028;-91
2023/06/17 06:23:20;;;;;;;6.78;5.65;;;;;;;15.19;100.00;100434.06;6283734;22;20054;-92
2023/06/17 06:25:46;;;;;;;8.38;5.07;;;;;;;15.12;100.00;100422.50;6283494;22;20001;-91
2023/06/17 06:28:11;;;;;;;9.30;5.68;;;;;;;15.10;99.77;100414.81;6179249;23;20005;-92
2023/06/17 06:30:36;;;;;;;8.27;6.03;;;;;;;15.08;100.00;100397.69;6283283;22;20033;-92
2023/06/17 06:33:02;;;;;;;8.02;5.65;;;;;;;14.95;100.00;100401.22;6180175;22;20008;-91
2023/06/17 06:35:27;;;;;;;12.13;6.75;;;;;;;14.84;100.00;100405.59;6179899;22;20005;-91
2023/06/17 06:37:52;;;;;;;9.02;6.07;;;;;;;14.88;100.00;100397.44;6283754;22;20012;-92
2023/06/17 06:40:18;;;;;;;9.15;6.25;;;;;;;14.98;100.00;100393.19;6179834;23;20640;-91
2023/06/17 06:42:43;;;;;;;9.13;5.60;;;;;;;14.99;100.00;100400.03;6179973;23;20033;-91
2023/06/17 06:45:09;;;;;;;11.38;6.60;;;;;;;15.24;100.00;100381.72;6179991;23;20002;-91
2023/06/17 06:47:34;;;;;;;8.13;6.20;;;;;;;15.33;100.00;100383.59;6180095;22;20426;-91
2023/06/17 06:50:00;;;;;;;7.95;7.15;;;;;;;15.39;100.00;100370.94;6179562;23;20096;-91
2023/06/17 06:52:25;;;;;;;9.65;6.93;;;;;;;15.40;100.00;100372.59;6180025;22;20001;-91
2023/06/17 06:54:51;;;;;;;7.93;6.50;;;;;;;15.36;100.00;100381.59;6283562;22;20034;-92
2023/06/17 06:57:16;;;;;;;8.15;6.53;;;;;;;15.60;100.00;100365.81;6179620;23;20005;-91
2023/06/17 06:59:42;;;;;;;8.57;6.85;;;;;;;15.68;100.00;100373.03;6179923;22;20028;-91
2023/06/17 07:02:07;;;;;;;7.50;6.60;;;;;;;15.82;100.00;100372.75;6179932;22;20382;-91
2023/06/17 07:04:32;;;;;;;9.85;6.30;;;;;;;15.88;100.00;100373.22;6179691;23;20080;-91
2023/06/17 07:06:58;;;;;;;12.43;7.35;;;;;;;15.96;100.00;100365.63;6282950;22;20432;-91
2023/06/17 07:09:23;;;;;;;11.32;7.15;;;;;;;16.19;100.00;100366.34;6283127;22;20005;-92
2023/06/17 07:11:48;;;;;;;10.63;6.82;;;;;;;16.47;100.00;100370.09;6180196;22;20081;-91
2023/06/17 07:14:14;;;;;;;13.32;5.55;;;;;;;16.61;92.62;100366.34;6179674;22;20008;-91
2023/06/17 07:16:39;;;;;;;6.88;5.32;;;;;;;16.99;90.96;100370.94;6179587;23;20008;-90
2023/06/17 07:19:04;;;;;;;8.07;5.90;;;;;;;17.67;85.87;100380.72;6179472;23;20009;-91
2023/06/17 07:21:30;;;;;;;7.47;5.32;;;;;;;18.01;85.31;100377.75;6179521;23;20042;-91
2023/06/17 07:23:55;;;;;;;8.45;6.22;;;;;;;18.26;81.83;100376.38;6179736;22;20005;-91
2023/06/17 07:26:20;;;;;;;7.40;5.20;;;;;;;18.29;74.61;100371.69;6179534;23;20301;-91
2023/06/17 07:28:46;;;;;;;6.07;5.07;;;;;;;18.62;73.03;100377.41;6179374;22;20038;-90
2023/06/17 07:31:12;;;;;;;10.70;5.57;;;;;;;18.89;71.76;100368.00;6179715;22;20043;-91
2023/06/17 07:33:39;;;;;;;6.57;4.82;;;;;;;19.42;68.27;100375.19;6179348;23;20443;-89
2023/06/17 07:36:04;;;;;;;8.90;6.05;;;;;;;20.13;64.15;100370.97;6282838;22;20001;-90
2023/06/17 07:38:32;;;;;;;7.07;4.95;;;;;;;21.00;59.98;100377.09;6180046;22;20005;-91
2023/06/17 07:40:58;;;;;;;8.80;4.88;;;;;;;21.02;60.42;100375.13;6284575;22;20018;-91
2023/06/17 07:43:23;;;;;;;10.73;6.63;;;;;;;20.57;62.41;100376.22;6285292;22;20001;-91
2023/06/17 07:45:48;;;;;;;7.72;5.47;;;;;;;20.56;59.04;100375.41;6180825;22;20001;-91
2023/06/17 07:48:14;;;;;;;5.53;4.30;;;;;;;20.33;58.93;100375.03;6181012;23;20068;-91
2023/06/17 07:50:40;;;;;;;7.05;4.07;;;;;;;20.10;61.20;100370.28;6181095;22;20029;-91
2023/06/17 07:53:05;;;;;;;7.38;4.45;;;;;;;19.79;60.67;100371.66;6284884;22;20005;-91
2023/06/17 07:55:32;;;;;;;5.20;3.63;;;;;;;20.03;59.45;100369.25;6180580;23;20432;-90
2023/06/17 07:57:57;;;;;;;5.28;4.35;;;;;;;20.35;59.91;100365.22;6180443;23;20008;-91
2023/06/17 08:00:22;;;;;;;5.57;4.50;;;;;;;20.16;59.62;100362.78;6180827;22;20001;-91
2023/06/17 08:02:48;;;;;;;6.18;4.35;;;;;;;20.41;60.58;100362.00;6180570;23;20148;-89
2023/06/17 08:05:13;;;;;;;7.15;4.40;;;;;;;20.28;63.57;100361.56;6180695;22;20005;-90
2023/06/17 08:07:38;;;;;;;4.57;3.28;;;;;;;19.82;59.27;100366.09;6180796;22;20080;-90
2023/06/17 08:10:04;;;;;;;7.65;3.75;;;;;;;19.73;57.81;100359.13;6180728;22;20005;-90
2023/06/17 08:12:30;;;;;;;10.43;3.70;;;;;;;19.95;61.86;100363.13;6284738;22;20001;-89
2023/06/17 08:14:55;;;;;;;7.53;4.25;;;;;;;20.03;65.92;100364.00;6180728;22;20009;-90
2023/06/17 08:17:20;;;;;;;7.85;4.00;;;;;;;20.12;67.19;100364.91;6180366;23;20301;-91
2023/06/17 08:19:46;;;;;;;5.75;4.07;;;;;;;20.07;63.37;100359.31;6180508;22;20084;-90
2023/06/17 08:22:11;;;;;;;5.25;4.25;;;;;;;20.42;64.32;100366.25;6180776;22;20439;-92
2023/06/17 08:24:37;;;;;;;7.97;4.25;;;;;;;21.08;61.33;100364.00;6180528;22;20388;-91
2023/06/17 08:27:04;;;;;;;6.13;3.97;;;;;;;21.66;55.56;100368.47;6284530;22;20439;-91
2023/06/17 08:29:31;;;;;;;5.03;3.83;;;;;;;22.00;53.16;100362.25;6180346;22;20378;-91
2023/06/17 08:31:56;;;;;;;6.82;4.07;;;;;;;22.02;52.83;100365.56;6284909;22;20332;-91
2023/06/17 08:34:21;;;;;;;6.78;3.83;;;;;;;21.73;53.33;100368.66;6180613;22;20001;-91
2023/06/17 08:36:52;;;;;;;7.97;3.53;;;;;;;21.66;52.64;100367.66;6180672;22;20332;-91
2023/06/17 08:39:17;;;;;;;4.70;3.03;;;;;;;21.97;51.67;100365.19;6180549;22;20093;-91
2023/06/17 08:41:43;;;;;;;6.55;3.60;;;;;;;22.35;50.72;100357.66;6180320;23;20032;-91
2023/06/17 08:44:11;;;;;;;7.28;4.30;;;;;;;22.45;50.04;100355.66;6284364;22;20008;-92
2023/06/17 08:46:38;;;;;;;7.22;4.10;;;;;;;22.23;50.64;100352.72;6284832;22;20534;-92
2023/06/17 08:49:03;;;;;;;6.93;3.60;;;;;;;22.31;53.19;100345.81;6284028;22;20005;-91
2023/06/17 08:51:29;;;;;;;7.13;4.00;;;;;;;22.44;51.70;100348.78;6284198;22;20005;-90
2023/06/17 08:53:56;;;;;;;6.47;4.40;;;;;;;22.48;50.96;100344.78;6284517;22;20001;-90
2023/06/17 08:56:22;;;;;;;6.65;4.05;;;;;;;22.27;51.74;100339.28;6284582;22;20020;-92
2023/06/17 08:58:49;;;;;;;5.47;4.10;;;;;;;23.04;51.29;100336.91;6180403;22;20001;-90
2023/06/17 09:01:16;;;;;;;10.00;4.47;;;;;;;23.26;52.50;100341.44;6180308;23;20008;-92
2023/06/17 09:03:42;;;;;;;7.80;5.50;;;;;;;23.48;51.27;100331.91;6180345;22;20009;-91
2023/06/17 09:06:23;;;;;;;5.40;4.28;;;;;;;24.68;49.10;100333.84;6284336;22;20044;-92
2023/06/17 09:08:50;;;;;;;7.78;5.38;;;;;;;25.24;46.93;100330.69;6180078;23;20005;-91
2023/06/17 09:11:17;;;;;;;11.65;4.28;;;;;;;25.54;45.78;100326.13;6284649;22;20001;-91
2023/06/17 09:13:42;;;;;;;6.38;4.78;;;;;;;25.35;46.06;100326.72;6180134;22;20033;-91
2023/06/17 09:16:08;;;;;;;8.13;4.20;;;;;;;25.74;45.89;100328.13;6284544;22;20058;-91
2023/06/17 09:18:35;;;;;;;8.75;4.13;;;;;;;25.45;44.97;100329.06;6180470;22;20008;-91
2023/06/17 09:21:03;;;;;;;8.27;5.10;;;;;;;25.71;46.24;100325.88;6180363;22;20005;-93
2023/06/17 09:23:28;;;;;;;9.43;4.60;;;;;;;25.01;47.24;100314.94;6180251;23;20005;-91
2023/06/17 09:26:02;;;;;;;7.25;4.35;;;;;;;25.28;45.62;100321.38;6180430;23;20080;-92
2023/06/17 09:28:27;;;;;;;5.10;4.00;;;;;;;25.23;46.88;100320.31;6180512;22;20008;-90
2023/06/17 09:30:56;;;;;;;7.90;4.28;;;;;;;25.29;46.29;100316.91;6179889;23;20013;-92
2023/06/17 09:33:23;;;;;;;6.35;4.22;;;;;;;25.33;45.77;100320.81;6180259;23;20001;-91
2023/06/17 09:35:58;;;;;;;6.63;3.60;;;;;;;25.23;44.97;100322.94;6180558;22;20001;-91
2023/06/17 09:38:24;;;;;;;7.00;3.88;;;;;;;25.32;45.42;100321.81;6180435;23;20001;-92
2023/06/17 09:40:50;;;;;;;6.68;4.53;;;;;;;25.31;44.71;100314.88;6179964;22;20001;-91
2023/06/17 09:43:16;;;;;;;7.85;4.32;;;;;;;25.58;43.84;100315.97;6180152;22;20029;-92
2023/06/17 09:45:44;;;;;;;4.53;3.15;;;;;;;26.20;42.87;100314.47;6180289;22;20001;-91
2023/06/17 09:48:10;;;;;;;8.95;4.20;;;;;;;26.54;40.96;100310.22;6180054;22;20005;-91
2023/06/17 09:50:37;;;;;;;7.32;3.63;;;;;;;27.03;40.63;100309.19;6283309;22;20036;-91
2023/06/17 09:53:05;;;;;;;5.78;3.72;;;;;;;27.17;39.46;100308.22;6180435;22;20339;-92
2023/06/17 09:55:32;;;;;;;3.97;3.47;;;;;;;26.98;39.48;100301.84;6180255;22;20001;-92
2023/06/17 09:57:59;;;;;;;6.95;3.17;;;;;;;27.26;39.48;100298.28;6283727;22;20066;-92
2023/06/17 10:00:26;;;;;;;4.00;3.03;;;;;;;28.25;38.00;100307.28;6179904;22;20339;-92
2023/06/17 10:02:54;;;;;;;5.10;2.53;;;;;;;28.31;38.65;100301.97;6180226;22;20001;-92
2023/06/17 10:05:25;;;;;;;6.35;3.00;;;;;;;28.04;36.87;100306.47;6180421;23;20072;-91
2023/06/17 10:07:53;;;;;;;3.15;2.55;;;;;;;27.29;36.29;100295.25;6283739;22;20328;-92
2023/06/17 10:10:20;;;;;;;4.10;2.70;;;;;;;28.22;37.26;100294.44;6179952;22;20009;-92
2023/06/17 10:12:48;;;;;;;5.45;3.05;;;;;;;27.95;35.96;100295.28;6180167;22;20001;-92
2023/06/17 10:15:17;;;;;;;6.70;2.60;;;;;;;28.47;36.68;100305.22;6180227;22;20009;-92
2023/06/17 10:17:45;;;;;;;6.68;3.10;;;;;;;28.63;33.73;100299.47;6283755;22;20017;-92
2023/06/17 10:20:14;;;;;;;3.28;2.58;;;;;;;28.31;35.70;100306.44;6179180;22;19997;-93
2023/06/17 10:22:41;;;;;;;8.07;4.10;;;;;;;29.20;35.77;100299.59;6178147;22;20080;-93
2023/06/17 10:25:10;;;;;;;5.18;2.70;;;;;;;29.34;35.47;100308.31;6178990;22;20055;-92
2023/06/17 10:27:36;;;;;;;4.15;3.20;;;;;;;29.41;36.17;100307.25;6283422;22;20566;-91
2023/06/17 10:30:22;;;;;;;6.95;3.22;;;;;;;29.53;36.44;100303.88;6180308;22;20005;-93
2023/06/17 10:32:55;;;;;;;3.42;2.40;;;;;;;29.60;36.13;100294.00;6283728;22;20008;-92
2023/06/17 10:35:20;;;;;;;6.63;3.20;;;;;;;29.13;36.03;100293.50;6283895;22;20466;-93
2023/06/17 10:37:50;;;;;;;5.38;2.90;;;;;;;29.08;36.55;100288.03;6179918;23;20033;-92
2023/06/17 10:40:21;;;;;;;6.88;2.97;;;;;;;29.69;34.97;100287.41;6283696;22;20001;-92
2023/06/17 10:43:02;;;;;;;4.03;2.60;;;;;;;29.43;36.20;100291.88;6179848;23;20001;-92
2023/06/17 10:45:29;;;;;;;5.72;2.90;;;;;;;29.65;37.68;100291.50;6284058;22;20001;-92
2023/06/17 10:48:15;;;;;;;3.80;2.67;;;;;;;29.62;34.54;100299.91;6283529;22;20007;-91
2023/06/17 10:50:47;;;;;;;4.45;2.50;;;;;;;30.82;33.16;100296.06;6283173;22;20377;-91
2023/06/17 10:53:16;;;;;;;4.70;3.10;;;;;;;29.84;34.32;100295.88;6179848;22;20005;-93
2023/06/17 10:55:42;;;;;;;6.63;2.78;;;;;;;30.51;33.78;100289.91;6179788;22;20028;-91
2023/06/17 10:58:07;;;;;;;2.67;2.13;;;;;;;31.01;32.54;100295.00;6179766;22;20001;-94
2023/06/17 11:00:33;;;;;;;5.63;2.95;;;;;;;29.79;34.00;100293.03;6179969;22;20081;-94
2023/06/17 11:02:59;;;;;;;4.65;3.05;;;;;;;29.60;34.01;100294.00;6179890;22;20430;-93
2023/06/17 11:05:24;;;;;;;7.78;2.55;;;;;;;30.36;34.47;100284.13;6283219;22;20008;-92
2023/06/17 11:07:50;;;;;;;3.92;3.03;;;;;;;29.97;33.97;100283.47;6179655;23;20001;-93
2023/06/17 11:10:16;;;;;;;3.38;2.40;;;;;;;30.67;33.34;100273.28;6179512;22;20358;-93
2023/06/17 11:12:45;;;;;;;4.03;2.90;;;;;;;30.91;34.46;100268.09;6282968;22;20455;-93
2023/06/17 11:15:11;;;;;;;5.35;2.72;;;;;;;30.72;32.84;100275.28;6179542;22;20005;-93
2023/06/17 11:17:36;;;;;;;2.78;2.58;;;;;;;30.29;33.81;100270.91;6179767;22;20427;-93
2023/06/17 11:20:05;;;;;;;4.05;3.15;;;;;;;30.11;32.84;100263.66;6282824;22;20343;-92